sensor_id;sensor_type;location;lat;lon;timestamp;P1;durP1;ratioP1;P2;durP2;ratioP2
21152;SDS011;10734;44.792;20.482;2023-09-19T00:00:41;7.15;;;3.33;;
21152;SDS011;10734;44.792;20.482;2023-09-19T00:03:09;6.55;;;3.53;;
21152;SDS011;10734;44.792;20.482;2023-09-19T00:05:37;6.70;;;3.58;;
21152;SDS011;10734;44.792;20.482;2023-09-19T00:08:05;4.70;;;3.10;;
21152;SDS011;10734;44.792;20.482;2023-09-19T00:10:32;7.65;;;3.50;;
21152;SDS011;10734;44.792;20.482;2023-09-19T00:13:03;9.70;;;3.60;;
21152;SDS011;10734;44.792;20.482;2023-09-19T00:15:38;8.95;;;3.22;;
21152;SDS011;10734;44.792;20.482;2023-09-19T00:18:05;7.47;;;3.60;;
21152;SDS011;10734;44.792;20.482;2023-09-19T00:20:35;5.20;;;2.80;;
21152;SDS011;10734;44.792;20.482;2023-09-19T00:23:01;5.85;;;3.30;;
21152;SDS011;10734;44.792;20.482;2023-09-19T00:25:35;5.65;;;2.97;;
21152;SDS011;10734;44.792;20.482;2023-09-19T00:28:04;9.60;;;3.45;;
21152;SDS011;10734;44.792;20.482;2023-09-19T00:30:31;6.07;;;3.47;;
21152;SDS011;10734;44.792;20.482;2023-09-19T00:32:57;9.85;;;3.97;;
21152;SDS011;10734;44.792;20.482;2023-09-19T00:35:24;8.50;;;3.15;;
21152;SDS011;10734;44.792;20.482;2023-09-19T00:37:51;7.07;;;3.40;;
21152;SDS011;10734;44.792;20.482;2023-09-19T00:40:18;8.27;;;3.15;;
21152;SDS011;10734;44.792;20.482;2023-09-19T00:42:45;8.60;;;3.13;;
21152;SDS011;10734;44.792;20.482;2023-09-19T00:45:12;8.13;;;3.42;;
21152;SDS011;10734;44.792;20.482;2023-09-19T00:47:43;7.55;;;3.08;;
21152;SDS011;10734;44.792;20.482;2023-09-19T00:50:10;7.03;;;3.30;;
21152;SDS011;10734;44.792;20.482;2023-09-19T00:52:42;8.93;;;3.28;;
21152;SDS011;10734;44.792;20.482;2023-09-19T00:55:09;4.20;;;2.92;;
21152;SDS011;10734;44.792;20.482;2023-09-19T00:57:36;11.77;;;3.22;;
21152;SDS011;10734;44.792;20.482;2023-09-19T01:00:05;5.70;;;3.05;;
21152;SDS011;10734;44.792;20.482;2023-09-19T01:02:33;4.72;;;2.85;;
21152;SDS011;10734;44.792;20.482;2023-09-19T01:05:00;7.75;;;3.10;;
21152;SDS011;10734;44.792;20.482;2023-09-19T01:07:27;8.43;;;3.60;;
21152;SDS011;10734;44.792;20.482;2023-09-19T01:09:57;14.40;;;3.22;;
21152;SDS011;10734;44.792;20.482;2023-09-19T01:17:44;5.30;;;2.95;;
21152;SDS011;10734;44.792;20.482;2023-09-19T01:28:20;5.32;;;3.05;;
21152;SDS011;10734;44.792;20.482;2023-09-19T01:30:52;4.07;;;3.28;;
21152;SDS011;10734;44.792;20.482;2023-09-19T01:33:24;4.43;;;3.35;;
21152;SDS011;10734;44.792;20.482;2023-09-19T01:35:52;6.55;;;3.50;;
21152;SDS011;10734;44.792;20.482;2023-09-19T01:38:22;6.55;;;3.20;;
21152;SDS011;10734;44.792;20.482;2023-09-19T01:41:00;5.13;;;3.08;;
21152;SDS011;10734;44.792;20.482;2023-09-19T01:43:31;6.10;;;3.15;;
21152;SDS011;10734;44.792;20.482;2023-09-19T01:51:21;7.30;;;3.60;;
21152;SDS011;10734;44.792;20.482;2023-09-19T01:53:50;4.03;;;3.30;;
21152;SDS011;10734;44.792;20.482;2023-09-19T01:59:13;10.68;;;4.13;;
21152;SDS011;10734;44.792;20.482;2023-09-19T02:01:40;7.82;;;3.63;;
21152;SDS011;10734;44.792;20.482;2023-09-19T02:04:07;4.80;;;3.28;;
21152;SDS011;10734;44.792;20.482;2023-09-19T02:06:34;7.47;;;3.97;;
21152;SDS011;10734;44.792;20.482;2023-09-19T02:09:00;6.85;;;4.00;;
21152;SDS011;10734;44.792;20.482;2023-09-19T02:11:27;5.90;;;3.80;;
21152;SDS011;10734;44.792;20.482;2023-09-19T02:13:54;8.15;;;3.33;;
21152;SDS011;10734;44.792;20.482;2023-09-19T02:16:21;9.50;;;3.70;;
21152;SDS011;10734;44.792;20.482;2023-09-19T02:18:48;4.88;;;3.40;;
21152;SDS011;10734;44.792;20.482;2023-09-19T02:21:16;5.82;;;3.35;;
21152;SDS011;10734;44.792;20.482;2023-09-19T02:23:44;6.20;;;3.45;;
21152;SDS011;10734;44.792;20.482;2023-09-19T02:26:10;6.35;;;3.83;;
21152;SDS011;10734;44.792;20.482;2023-09-19T02:28:38;8.52;;;3.75;;
21152;SDS011;10734;44.792;20.482;2023-09-19T02:31:05;9.00;;;3.97;;
21152;SDS011;10734;44.792;20.482;2023-09-19T02:33:32;7.55;;;3.95;;
21152;SDS011;10734;44.792;20.482;2023-09-19T02:36:02;7.00;;;3.60;;
21152;SDS011;10734;44.792;20.482;2023-09-19T02:38:30;6.65;;;3.50;;
21152;SDS011;10734;44.792;20.482;2023-09-19T02:40:56;7.57;;;3.67;;
21152;SDS011;10734;44.792;20.482;2023-09-19T02:43:23;5.10;;;3.45;;
21152;SDS011;10734;44.792;20.482;2023-09-19T02:45:50;8.30;;;4.10;;
21152;SDS011;10734;44.792;20.482;2023-09-19T02:48:19;7.90;;;3.55;;
21152;SDS011;10734;44.792;20.482;2023-09-19T02:50:49;5.90;;;3.83;;
21152;SDS011;10734;44.792;20.482;2023-09-19T02:53:15;9.63;;;4.32;;
21152;SDS011;10734;44.792;20.482;2023-09-19T02:55:42;7.47;;;3.92;;
21152;SDS011;10734;44.792;20.482;2023-09-19T02:58:09;9.02;;;4.32;;
21152;SDS011;10734;44.792;20.482;2023-09-19T03:00:38;8.85;;;4.10;;
21152;SDS011;10734;44.792;20.482;2023-09-19T03:03:04;6.25;;;4.95;;
21152;SDS011;10734;44.792;20.482;2023-09-19T03:05:32;7.55;;;3.92;;
21152;SDS011;10734;44.792;20.482;2023-09-19T03:07:59;12.80;;;4.72;;
21152;SDS011;10734;44.792;20.482;2023-09-19T03:10:29;7.45;;;4.57;;
21152;SDS011;10734;44.792;20.482;2023-09-19T03:12:57;7.55;;;3.75;;
21152;SDS011;10734;44.792;20.482;2023-09-19T03:15:26;9.77;;;3.75;;
21152;SDS011;10734;44.792;20.482;2023-09-19T03:17:52;13.27;;;4.95;;
21152;SDS011;10734;44.792;20.482;2023-09-19T03:20:20;8.32;;;4.28;;
21152;SDS011;10734;44.792;20.482;2023-09-19T03:22:47;11.70;;;4.88;;
21152;SDS011;10734;44.792;20.482;2023-09-19T03:25:14;7.47;;;4.43;;
21152;SDS011;10734;44.792;20.482;2023-09-19T03:27:43;6.63;;;4.63;;
21152;SDS011;10734;44.792;20.482;2023-09-19T03:30:10;12.15;;;4.40;;
21152;SDS011;10734;44.792;20.482;2023-09-19T03:32:46;10.05;;;4.65;;
21152;SDS011;10734;44.792;20.482;2023-09-19T03:35:13;12.98;;;4.55;;
21152;SDS011;10734;44.792;20.482;2023-09-19T03:37:41;7.72;;;4.30;;
21152;SDS011;10734;44.792;20.482;2023-09-19T03:40:11;6.03;;;3.72;;
21152;SDS011;10734;44.792;20.482;2023-09-19T03:42:38;9.30;;;4.07;;
21152;SDS011;10734;44.792;20.482;2023-09-19T03:45:06;7.82;;;3.97;;
21152;SDS011;10734;44.792;20.482;2023-09-19T03:47:34;7.90;;;4.10;;
21152;SDS011;10734;44.792;20.482;2023-09-19T03:50:00;5.63;;;4.00;;
21152;SDS011;10734;44.792;20.482;2023-09-19T03:52:27;11.35;;;5.03;;
21152;SDS011;10734;44.792;20.482;2023-09-19T03:54:53;7.07;;;4.03;;
21152;SDS011;10734;44.792;20.482;2023-09-19T03:57:20;6.95;;;3.88;;
21152;SDS011;10734;44.792;20.482;2023-09-19T03:59:47;8.73;;;4.97;;
21152;SDS011;10734;44.792;20.482;2023-09-19T04:02:13;7.80;;;3.75;;
21152;SDS011;10734;44.792;20.482;2023-09-19T04:04:51;10.25;;;4.20;;
21152;SDS011;10734;44.792;20.482;2023-09-19T04:07:18;8.60;;;3.65;;
21152;SDS011;10734;44.792;20.482;2023-09-19T04:09:49;10.38;;;4.05;;
21152;SDS011;10734;44.792;20.482;2023-09-19T04:12:15;6.75;;;4.05;;
21152;SDS011;10734;44.792;20.482;2023-09-19T04:14:45;6.93;;;4.35;;
21152;SDS011;10734;44.792;20.482;2023-09-19T04:17:11;5.70;;;4.32;;
21152;SDS011;10734;44.792;20.482;2023-09-19T04:19:38;11.68;;;4.35;;
21152;SDS011;10734;44.792;20.482;2023-09-19T04:22:04;11.38;;;4.70;;
21152;SDS011;10734;44.792;20.482;2023-09-19T04:24:31;8.45;;;4.15;;
21152;SDS011;10734;44.792;20.482;2023-09-19T04:26:58;6.65;;;4.18;;
21152;SDS011;10734;44.792;20.482;2023-09-19T04:29:25;8.98;;;4.88;;
21152;SDS011;10734;44.792;20.482;2023-09-19T04:31:56;8.05;;;4.70;;
21152;SDS011;10734;44.792;20.482;2023-09-19T04:34:23;6.72;;;4.13;;
21152;SDS011;10734;44.792;20.482;2023-09-19T04:36:51;8.65;;;4.18;;
21152;SDS011;10734;44.792;20.482;2023-09-19T04:39:17;7.60;;;4.45;;
21152;SDS011;10734;44.792;20.482;2023-09-19T04:41:44;8.95;;;4.38;;
21152;SDS011;10734;44.792;20.482;2023-09-19T04:44:11;11.35;;;4.25;;
21152;SDS011;10734;44.792;20.482;2023-09-19T04:46:38;5.63;;;4.40;;
21152;SDS011;10734;44.792;20.482;2023-09-19T04:49:05;9.27;;;4.78;;
21152;SDS011;10734;44.792;20.482;2023-09-19T04:51:32;8.80;;;4.70;;
21152;SDS011;10734;44.792;20.482;2023-09-19T04:54:03;8.02;;;4.43;;
21152;SDS011;10734;44.792;20.482;2023-09-19T04:56:30;6.22;;;4.20;;
21152;SDS011;10734;44.792;20.482;2023-09-19T04:58:58;8.43;;;4.72;;
21152;SDS011;10734;44.792;20.482;2023-09-19T05:01:25;6.72;;;4.65;;
21152;SDS011;10734;44.792;20.482;2023-09-19T05:03:52;6.50;;;4.70;;
21152;SDS011;10734;44.792;20.482;2023-09-19T05:06:19;13.18;;;5.00;;
21152;SDS011;10734;44.792;20.482;2023-09-19T05:08:49;12.25;;;4.18;;
21152;SDS011;10734;44.792;20.482;2023-09-19T05:11:20;10.55;;;4.55;;
21152;SDS011;10734;44.792;20.482;2023-09-19T05:13:50;17.45;;;4.72;;
21152;SDS011;10734;44.792;20.482;2023-09-19T05:16:19;9.60;;;4.40;;
21152;SDS011;10734;44.792;20.482;2023-09-19T05:18:45;7.70;;;5.28;;
21152;SDS011;10734;44.792;20.482;2023-09-19T05:21:12;8.93;;;4.57;;
21152;SDS011;10734;44.792;20.482;2023-09-19T05:23:39;8.50;;;5.10;;
21152;SDS011;10734;44.792;20.482;2023-09-19T05:26:06;7.60;;;5.20;;
21152;SDS011;10734;44.792;20.482;2023-09-19T05:28:33;9.73;;;4.95;;
21152;SDS011;10734;44.792;20.482;2023-09-19T05:31:01;14.88;;;5.00;;
21152;SDS011;10734;44.792;20.482;2023-09-19T05:33:29;8.35;;;4.75;;
21152;SDS011;10734;44.792;20.482;2023-09-19T05:35:58;10.00;;;5.07;;
21152;SDS011;10734;44.792;20.482;2023-09-19T05:38:25;6.88;;;4.50;;
21152;SDS011;10734;44.792;20.482;2023-09-19T05:40:54;7.20;;;4.97;;
21152;SDS011;10734;44.792;20.482;2023-09-19T05:43:21;11.43;;;5.10;;
21152;SDS011;10734;44.792;20.482;2023-09-19T05:45:48;10.20;;;4.80;;
21152;SDS011;10734;44.792;20.482;2023-09-19T05:48:14;10.70;;;4.50;;
21152;SDS011;10734;44.792;20.482;2023-09-19T05:50:42;11.07;;;5.25;;
21152;SDS011;10734;44.792;20.482;2023-09-19T05:53:09;6.55;;;4.85;;
21152;SDS011;10734;44.792;20.482;2023-09-19T05:55:39;8.63;;;4.72;;
21152;SDS011;10734;44.792;20.482;2023-09-19T05:58:06;9.27;;;5.25;;
21152;SDS011;10734;44.792;20.482;2023-09-19T06:00:33;10.55;;;4.60;;
21152;SDS011;10734;44.792;20.482;2023-09-19T06:03:02;12.77;;;5.38;;
21152;SDS011;10734;44.792;20.482;2023-09-19T06:05:29;8.73;;;5.22;;
21152;SDS011;10734;44.792;20.482;2023-09-19T06:07:59;12.90;;;5.28;;
21152;SDS011;10734;44.792;20.482;2023-09-19T06:10:27;8.25;;;4.90;;
21152;SDS011;10734;44.792;20.482;2023-09-19T06:12:54;8.05;;;4.70;;
21152;SDS011;10734;44.792;20.482;2023-09-19T06:15:21;10.10;;;4.95;;
21152;SDS011;10734;44.792;20.482;2023-09-19T06:17:53;10.48;;;5.38;;
21152;SDS011;10734;44.792;20.482;2023-09-19T06:20:23;9.30;;;5.55;;
21152;SDS011;10734;44.792;20.482;2023-09-19T06:22:50;8.93;;;5.15;;
21152;SDS011;10734;44.792;20.482;2023-09-19T06:25:18;6.95;;;5.22;;
21152;SDS011;10734;44.792;20.482;2023-09-19T06:27:49;8.02;;;5.30;;
21152;SDS011;10734;44.792;20.482;2023-09-19T06:30:19;9.75;;;5.03;;
21152;SDS011;10734;44.792;20.482;2023-09-19T06:32:46;7.85;;;5.18;;
21152;SDS011;10734;44.792;20.482;2023-09-19T06:35:14;5.70;;;4.78;;
21152;SDS011;10734;44.792;20.482;2023-09-19T06:37:41;6.32;;;4.57;;
21152;SDS011;10734;44.792;20.482;2023-09-19T06:40:09;10.60;;;4.40;;
21152;SDS011;10734;44.792;20.482;2023-09-19T06:42:43;11.30;;;4.68;;
21152;SDS011;10734;44.792;20.482;2023-09-19T06:45:13;11.32;;;4.93;;
21152;SDS011;10734;44.792;20.482;2023-09-19T06:47:45;10.63;;;5.13;;
21152;SDS011;10734;44.792;20.482;2023-09-19T06:50:12;7.05;;;5.18;;
21152;SDS011;10734;44.792;20.482;2023-09-19T06:52:41;7.70;;;4.93;;
21152;SDS011;10734;44.792;20.482;2023-09-19T06:55:08;8.23;;;5.57;;
21152;SDS011;10734;44.792;20.482;2023-09-19T06:57:38;12.55;;;5.88;;
21152;SDS011;10734;44.792;20.482;2023-09-19T07:00:06;9.10;;;4.95;;
21152;SDS011;10734;44.792;20.482;2023-09-19T07:02:42;8.02;;;4.68;;
21152;SDS011;10734;44.792;20.482;2023-09-19T07:05:09;11.07;;;5.53;;
21152;SDS011;10734;44.792;20.482;2023-09-19T07:07:36;10.45;;;5.13;;
21152;SDS011;10734;44.792;20.482;2023-09-19T07:10:03;7.93;;;4.88;;
21152;SDS011;10734;44.792;20.482;2023-09-19T07:12:34;7.25;;;4.78;;
21152;SDS011;10734;44.792;20.482;2023-09-19T07:15:01;10.00;;;5.22;;
21152;SDS011;10734;44.792;20.482;2023-09-19T07:17:28;10.23;;;5.70;;
21152;SDS011;10734;44.792;20.482;2023-09-19T07:19:56;10.93;;;4.70;;
21152;SDS011;10734;44.792;20.482;2023-09-19T07:22:26;11.63;;;5.22;;
21152;SDS011;10734;44.792;20.482;2023-09-19T07:24:53;9.93;;;4.93;;
21152;SDS011;10734;44.792;20.482;2023-09-19T07:27:20;10.93;;;5.75;;
21152;SDS011;10734;44.792;20.482;2023-09-19T07:29:46;13.05;;;5.38;;
21152;SDS011;10734;44.792;20.482;2023-09-19T07:32:17;7.80;;;4.63;;
21152;SDS011;10734;44.792;20.482;2023-09-19T07:34:44;12.88;;;5.40;;
21152;SDS011;10734;44.792;20.482;2023-09-19T07:37:11;7.22;;;4.65;;
21152;SDS011;10734;44.792;20.482;2023-09-19T07:39:42;11.77;;;4.90;;
21152;SDS011;10734;44.792;20.482;2023-09-19T07:42:09;12.88;;;5.60;;
21152;SDS011;10734;44.792;20.482;2023-09-19T07:44:37;8.63;;;5.50;;
21152;SDS011;10734;44.792;20.482;2023-09-19T07:47:04;7.75;;;4.40;;
21152;SDS011;10734;44.792;20.482;2023-09-19T07:49:31;10.77;;;5.18;;
21152;SDS011;10734;44.792;20.482;2023-09-19T07:51:57;12.20;;;5.30;;
21152;SDS011;10734;44.792;20.482;2023-09-19T07:54:25;9.75;;;5.00;;
21152;SDS011;10734;44.792;20.482;2023-09-19T07:56:53;9.77;;;5.25;;
21152;SDS011;10734;44.792;20.482;2023-09-19T07:59:20;7.82;;;5.32;;
21152;SDS011;10734;44.792;20.482;2023-09-19T08:01:47;6.38;;;4.40;;
21152;SDS011;10734;44.792;20.482;2023-09-19T08:04:14;9.70;;;5.07;;
21152;SDS011;10734;44.792;20.482;2023-09-19T08:06:41;8.77;;;4.72;;
21152;SDS011;10734;44.792;20.482;2023-09-19T08:09:08;8.93;;;4.75;;
21152;SDS011;10734;44.792;20.482;2023-09-19T08:11:37;8.25;;;5.35;;
21152;SDS011;10734;44.792;20.482;2023-09-19T08:14:05;11.07;;;4.93;;
21152;SDS011;10734;44.792;20.482;2023-09-19T08:16:35;15.73;;;4.90;;
21152;SDS011;10734;44.792;20.482;2023-09-19T08:19:02;9.63;;;5.10;;
21152;SDS011;10734;44.792;20.482;2023-09-19T08:21:28;11.88;;;5.25;;
21152;SDS011;10734;44.792;20.482;2023-09-19T08:23:55;10.45;;;4.90;;
21152;SDS011;10734;44.792;20.482;2023-09-19T08:26:23;11.13;;;5.05;;
21152;SDS011;10734;44.792;20.482;2023-09-19T08:28:50;9.88;;;5.20;;
21152;SDS011;10734;44.792;20.482;2023-09-19T08:31:17;8.02;;;4.72;;
21152;SDS011;10734;44.792;20.482;2023-09-19T08:33:44;7.78;;;4.55;;
21152;SDS011;10734;44.792;20.482;2023-09-19T08:36:15;7.38;;;5.15;;
21152;SDS011;10734;44.792;20.482;2023-09-19T08:38:42;9.23;;;5.10;;
21152;SDS011;10734;44.792;20.482;2023-09-19T08:41:09;12.82;;;5.20;;
21152;SDS011;10734;44.792;20.482;2023-09-19T08:43:36;12.15;;;5.30;;
21152;SDS011;10734;44.792;20.482;2023-09-19T08:46:08;12.27;;;5.32;;
21152;SDS011;10734;44.792;20.482;2023-09-19T08:48:45;9.70;;;5.28;;
21152;SDS011;10734;44.792;20.482;2023-09-19T08:51:21;14.40;;;5.40;;
21152;SDS011;10734;44.792;20.482;2023-09-19T08:54:03;9.85;;;5.20;;
21152;SDS011;10734;44.792;20.482;2023-09-19T08:56:33;9.52;;;5.88;;
21152;SDS011;10734;44.792;20.482;2023-09-19T08:59:03;11.48;;;5.85;;
21152;SDS011;10734;44.792;20.482;2023-09-19T09:01:37;13.70;;;5.70;;
21152;SDS011;10734;44.792;20.482;2023-09-19T09:04:08;11.10;;;6.38;;
21152;SDS011;10734;44.792;20.482;2023-09-19T09:06:39;15.57;;;6.55;;
21152;SDS011;10734;44.792;20.482;2023-09-19T09:09:10;16.08;;;5.97;;
21152;SDS011;10734;44.792;20.482;2023-09-19T09:11:37;11.93;;;6.10;;
21152;SDS011;10734;44.792;20.482;2023-09-19T09:14:06;11.73;;;6.00;;
21152;SDS011;10734;44.792;20.482;2023-09-19T09:16:34;16.77;;;5.55;;
21152;SDS011;10734;44.792;20.482;2023-09-19T09:19:01;10.60;;;5.15;;
21152;SDS011;10734;44.792;20.482;2023-09-19T09:21:28;16.95;;;5.50;;
21152;SDS011;10734;44.792;20.482;2023-09-19T09:23:55;12.05;;;5.28;;
21152;SDS011;10734;44.792;20.482;2023-09-19T09:26:40;14.07;;;6.45;;
21152;SDS011;10734;44.792;20.482;2023-09-19T09:29:07;14.65;;;5.18;;
21152;SDS011;10734;44.792;20.482;2023-09-19T09:31:34;11.02;;;6.00;;
21152;SDS011;10734;44.792;20.482;2023-09-19T09:34:01;11.73;;;5.20;;
21152;SDS011;10734;44.792;20.482;2023-09-19T09:36:34;19.58;;;5.70;;
21152;SDS011;10734;44.792;20.482;2023-09-19T09:39:07;14.95;;;6.03;;
21152;SDS011;10734;44.792;20.482;2023-09-19T09:41:45;12.45;;;5.45;;
21152;SDS011;10734;44.792;20.482;2023-09-19T09:44:14;11.43;;;4.82;;
21152;SDS011;10734;44.792;20.482;2023-09-19T09:46:42;12.25;;;5.18;;
21152;SDS011;10734;44.792;20.482;2023-09-19T09:49:41;12.48;;;5.07;;
21152;SDS011;10734;44.792;20.482;2023-09-19T09:52:21;12.32;;;5.22;;
21152;SDS011;10734;44.792;20.482;2023-09-19T09:55:00;11.60;;;5.25;;
21152;SDS011;10734;44.792;20.482;2023-09-19T09:57:32;14.35;;;4.97;;
21152;SDS011;10734;44.792;20.482;2023-09-19T10:00:00;18.58;;;5.78;;
21152;SDS011;10734;44.792;20.482;2023-09-19T10:02:43;18.02;;;6.03;;
21152;SDS011;10734;44.792;20.482;2023-09-19T10:05:16;18.23;;;5.30;;
21152;SDS011;10734;44.792;20.482;2023-09-19T10:07:49;11.55;;;5.38;;
21152;SDS011;10734;44.792;20.482;2023-09-19T10:10:35;14.60;;;5.20;;
21152;SDS011;10734;44.792;20.482;2023-09-19T10:13:20;13.63;;;5.53;;
21152;SDS011;10734;44.792;20.482;2023-09-19T10:15:51;13.32;;;5.40;;
21152;SDS011;10734;44.792;20.482;2023-09-19T10:18:22;19.73;;;5.75;;
21152;SDS011;10734;44.792;20.482;2023-09-19T10:20:49;16.38;;;5.38;;
21152;SDS011;10734;44.792;20.482;2023-09-19T10:23:17;13.77;;;5.40;;
21152;SDS011;10734;44.792;20.482;2023-09-19T10:25:49;14.60;;;5.50;;
21152;SDS011;10734;44.792;20.482;2023-09-19T10:28:16;14.25;;;5.72;;
21152;SDS011;10734;44.792;20.482;2023-09-19T10:30:49;10.35;;;5.30;;
21152;SDS011;10734;44.792;20.482;2023-09-19T10:33:17;17.20;;;6.25;;
21152;SDS011;10734;44.792;20.482;2023-09-19T10:35:45;17.08;;;5.82;;
21152;SDS011;10734;44.792;20.482;2023-09-19T10:38:12;14.55;;;5.32;;
21152;SDS011;10734;44.792;20.482;2023-09-19T10:40:41;13.20;;;5.85;;
21152;SDS011;10734;44.792;20.482;2023-09-19T10:43:13;22.55;;;6.65;;
21152;SDS011;10734;44.792;20.482;2023-09-19T10:45:46;13.25;;;5.97;;
21152;SDS011;10734;44.792;20.482;2023-09-19T10:48:16;12.20;;;5.23;;
21152;SDS011;10734;44.792;20.482;2023-09-19T10:50:48;13.80;;;5.03;;
21152;SDS011;10734;44.792;20.482;2023-09-19T10:53:15;13.43;;;5.03;;
21152;SDS011;10734;44.792;20.482;2023-09-19T10:55:50;12.32;;;5.70;;
21152;SDS011;10734;44.792;20.482;2023-09-19T10:58:27;17.10;;;6.10;;
21152;SDS011;10734;44.792;20.482;2023-09-19T11:00:58;15.10;;;6.07;;
21152;SDS011;10734;44.792;20.482;2023-09-19T11:03:44;13.68;;;6.05;;
21152;SDS011;10734;44.792;20.482;2023-09-19T11:06:15;26.73;;;6.43;;
21152;SDS011;10734;44.792;20.482;2023-09-19T11:22:19;15.90;;;6.50;;
21152;SDS011;10734;44.792;20.482;2023-09-19T11:24:48;19.17;;;7.65;;
21152;SDS011;10734;44.792;20.482;2023-09-19T11:27:17;16.48;;;7.32;;
21152;SDS011;10734;44.792;20.482;2023-09-19T11:29:44;15.75;;;6.63;;
21152;SDS011;10734;44.792;20.482;2023-09-19T11:32:11;18.15;;;6.57;;
21152;SDS011;10734;44.792;20.482;2023-09-19T11:34:42;14.93;;;6.28;;
21152;SDS011;10734;44.792;20.482;2023-09-19T11:42:46;22.48;;;6.28;;
21152;SDS011;10734;44.792;20.482;2023-09-19T11:48:24;13.73;;;6.35;;
21152;SDS011;10734;44.792;20.482;2023-09-19T11:50:53;12.60;;;6.10;;
21152;SDS011;10734;44.792;20.482;2023-09-19T11:53:21;16.67;;;6.25;;
21152;SDS011;10734;44.792;20.482;2023-09-19T11:55:49;14.55;;;5.88;;
21152;SDS011;10734;44.792;20.482;2023-09-19T11:58:17;13.60;;;6.47;;
21152;SDS011;10734;44.792;20.482;2023-09-19T12:00:45;17.58;;;6.28;;
21152;SDS011;10734;44.792;20.482;2023-09-19T12:03:12;16.38;;;6.35;;
21152;SDS011;10734;44.792;20.482;2023-09-19T12:05:45;15.32;;;6.85;;
21152;SDS011;10734;44.792;20.482;2023-09-19T12:08:11;17.13;;;6.25;;
21152;SDS011;10734;44.792;20.482;2023-09-19T12:10:48;13.77;;;6.18;;
21152;SDS011;10734;44.792;20.482;2023-09-19T12:13:18;18.83;;;7.45;;
21152;SDS011;10734;44.792;20.482;2023-09-19T12:15:45;14.23;;;6.63;;
21152;SDS011;10734;44.792;20.482;2023-09-19T12:18:27;16.30;;;6.90;;
21152;SDS011;10734;44.792;20.482;2023-09-19T12:20:55;14.60;;;6.47;;
21152;SDS011;10734;44.792;20.482;2023-09-19T12:23:22;13.32;;;6.80;;
21152;SDS011;10734;44.792;20.482;2023-09-19T12:25:49;10.10;;;6.55;;
21152;SDS011;10734;44.792;20.482;2023-09-19T12:28:19;14.02;;;6.93;;
21152;SDS011;10734;44.792;20.482;2023-09-19T12:30:48;14.63;;;7.20;;
21152;SDS011;10734;44.792;20.482;2023-09-19T12:33:18;17.25;;;6.43;;
21152;SDS011;10734;44.792;20.482;2023-09-19T12:35:52;19.30;;;6.72;;
21152;SDS011;10734;44.792;20.482;2023-09-19T12:38:25;17.80;;;6.60;;
21152;SDS011;10734;44.792;20.482;2023-09-19T12:40:55;17.83;;;7.32;;
21152;SDS011;10734;44.792;20.482;2023-09-19T12:43:22;15.25;;;7.00;;
21152;SDS011;10734;44.792;20.482;2023-09-19T12:45:49;12.48;;;6.50;;
21152;SDS011;10734;44.792;20.482;2023-09-19T12:53:43;44.22;;;7.10;;
21152;SDS011;10734;44.792;20.482;2023-09-19T12:56:11;38.60;;;6.63;;
21152;SDS011;10734;44.792;20.482;2023-09-19T12:58:59;43.17;;;8.48;;
21152;SDS011;10734;44.792;20.482;2023-09-19T13:01:29;32.42;;;7.57;;
21152;SDS011;10734;44.792;20.482;2023-09-19T13:06:39;30.52;;;7.80;;
21152;SDS011;10734;44.792;20.482;2023-09-19T13:09:10;28.35;;;7.15;;
21152;SDS011;10734;44.792;20.482;2023-09-19T13:11:38;31.85;;;8.07;;
21152;SDS011;10734;44.792;20.482;2023-09-19T13:14:17;20.83;;;7.13;;
21152;SDS011;10734;44.792;20.482;2023-09-19T13:19:48;15.45;;;6.35;;
21152;SDS011;10734;44.792;20.482;2023-09-19T13:25:01;22.67;;;6.72;;
21152;SDS011;10734;44.792;20.482;2023-09-19T13:27:30;14.30;;;6.35;;
21152;SDS011;10734;44.792;20.482;2023-09-19T13:29:56;15.43;;;6.40;;
21152;SDS011;10734;44.792;20.482;2023-09-19T13:32:24;22.58;;;7.68;;
21152;SDS011;10734;44.792;20.482;2023-09-19T13:34:51;19.15;;;6.50;;
21152;SDS011;10734;44.792;20.482;2023-09-19T13:37:18;17.63;;;7.07;;
21152;SDS011;10734;44.792;20.482;2023-09-19T13:39:44;16.20;;;6.38;;
21152;SDS011;10734;44.792;20.482;2023-09-19T13:42:14;12.25;;;5.93;;
21152;SDS011;10734;44.792;20.482;2023-09-19T13:44:40;18.10;;;5.88;;
21152;SDS011;10734;44.792;20.482;2023-09-19T13:47:07;13.18;;;6.03;;
21152;SDS011;10734;44.792;20.482;2023-09-19T13:49:36;23.60;;;7.15;;
21152;SDS011;10734;44.792;20.482;2023-09-19T13:52:04;14.75;;;6.22;;
21152;SDS011;10734;44.792;20.482;2023-09-19T13:54:31;21.52;;;7.15;;
21152;SDS011;10734;44.792;20.482;2023-09-19T13:56:58;19.00;;;6.00;;
21152;SDS011;10734;44.792;20.482;2023-09-19T13:59:25;12.60;;;6.38;;
21152;SDS011;10734;44.792;20.482;2023-09-19T14:01:51;24.17;;;7.53;;
21152;SDS011;10734;44.792;20.482;2023-09-19T14:04:20;19.38;;;6.93;;
21152;SDS011;10734;44.792;20.482;2023-09-19T14:06:48;24.70;;;7.93;;
21152;SDS011;10734;44.792;20.482;2023-09-19T14:09:15;22.00;;;8.25;;
21152;SDS011;10734;44.792;20.482;2023-09-19T14:11:42;22.98;;;7.68;;
21152;SDS011;10734;44.792;20.482;2023-09-19T14:14:12;22.98;;;8.82;;
21152;SDS011;10734;44.792;20.482;2023-09-19T14:16:39;16.50;;;7.70;;
21152;SDS011;10734;44.792;20.482;2023-09-19T14:19:08;16.95;;;7.45;;
21152;SDS011;10734;44.792;20.482;2023-09-19T14:21:35;23.77;;;10.15;;
21152;SDS011;10734;44.792;20.482;2023-09-19T14:24:02;27.45;;;9.05;;
21152;SDS011;10734;44.792;20.482;2023-09-19T14:26:30;31.17;;;9.38;;
21152;SDS011;10734;44.792;20.482;2023-09-19T14:28:56;33.58;;;8.98;;
21152;SDS011;10734;44.792;20.482;2023-09-19T14:31:25;23.08;;;9.07;;
21152;SDS011;10734;44.792;20.482;2023-09-19T14:33:54;22.50;;;7.82;;
21152;SDS011;10734;44.792;20.482;2023-09-19T14:36:25;30.92;;;8.32;;
21152;SDS011;10734;44.792;20.482;2023-09-19T14:38:52;26.10;;;8.30;;
21152;SDS011;10734;44.792;20.482;2023-09-19T14:41:25;23.10;;;7.63;;
21152;SDS011;10734;44.792;20.482;2023-09-19T14:43:52;24.65;;;8.25;;
21152;SDS011;10734;44.792;20.482;2023-09-19T14:46:19;24.10;;;7.80;;
21152;SDS011;10734;44.792;20.482;2023-09-19T14:48:45;26.30;;;7.55;;
21152;SDS011;10734;44.792;20.482;2023-09-19T14:51:14;24.67;;;7.40;;
21152;SDS011;10734;44.792;20.482;2023-09-19T14:53:41;24.38;;;6.63;;
21152;SDS011;10734;44.792;20.482;2023-09-19T14:56:08;25.23;;;6.00;;
21152;SDS011;10734;44.792;20.482;2023-09-19T14:58:35;23.30;;;5.57;;
21152;SDS011;10734;44.792;20.482;2023-09-19T15:01:06;21.98;;;5.68;;
21152;SDS011;10734;44.792;20.482;2023-09-19T15:03:34;20.23;;;5.32;;
21152;SDS011;10734;44.792;20.482;2023-09-19T15:06:04;21.92;;;5.45;;
21152;SDS011;10734;44.792;20.482;2023-09-19T15:08:32;22.55;;;5.40;;
21152;SDS011;10734;44.792;20.482;2023-09-19T15:11:04;24.55;;;5.13;;
21152;SDS011;10734;44.792;20.482;2023-09-19T15:13:32;23.17;;;6.00;;
21152;SDS011;10734;44.792;20.482;2023-09-19T15:16:06;25.17;;;6.40;;
21152;SDS011;10734;44.792;20.482;2023-09-19T15:18:37;22.95;;;5.85;;
21152;SDS011;10734;44.792;20.482;2023-09-19T15:21:06;19.10;;;5.10;;
21152;SDS011;10734;44.792;20.482;2023-09-19T15:23:33;21.17;;;5.57;;
21152;SDS011;10734;44.792;20.482;2023-09-19T15:26:00;18.35;;;5.47;;
21152;SDS011;10734;44.792;20.482;2023-09-19T15:28:27;17.02;;;5.93;;
21152;SDS011;10734;44.792;20.482;2023-09-19T15:33:31;25.40;;;6.55;;
21152;SDS011;10734;44.792;20.482;2023-09-19T15:38:31;22.75;;;6.32;;